Time;durP1;ratioP1;P1;durP2;ratioP2;P2;SDS_P1;SDS_P2;PMS_P1;PMS_P2;Temp;Humidity;BMP_temperature;BMP_pressure;BME280_temperature;BME280_humidity;BME280_pressure;Samples;Min_cycle;Max_cycle;Signal;HPM_P1;HPM_P2
2023/04/25 00:00:12;;;;;;;11.40;5.42;;;;;;;10.19;66.86;99803.48;1720820;83;21067;-58
2023/04/25 00:02:42;;;;;;;14.25;5.45;;;;;;;10.15;67.13;99795.37;1720673;83;21063;-58
2023/04/25 00:05:14;;;;;;;8.50;5.40;;;;;;;10.11;67.21;99795.48;1720733;83;21090;-59
2023/04/25 00:07:44;;;;;;;11.38;5.60;;;;;;;10.08;67.29;99795.91;1720976;83;21039;-58
2023/04/25 00:10:14;;;;;;;14.60;5.95;;;;;;;10.07;67.36;99789.58;1720816;83;21432;-58
2023/04/25 00:12:45;;;;;;;9.85;5.70;;;;;;;10.06;67.47;99786.53;1720718;83;21038;-57
2023/04/25 00:15:15;;;;;;;10.13;5.60;;;;;;;10.05;67.58;99786.74;1720746;83;21043;-58
2023/04/25 00:17:45;;;;;;;11.28;6.30;;;;;;;10.03;67.61;99782.84;1720792;83;21067;-59
2023/04/25 00:20:15;;;;;;;9.05;5.75;;;;;;;10.01;67.67;99781.38;1720843;83;21111;-58
2023/04/25 00:22:45;;;;;;;11.43;6.10;;;;;;;9.98;67.71;99779.05;1720891;83;21027;-58
2023/04/25 00:25:15;;;;;;;9.73;5.83;;;;;;;9.97;67.81;99774.10;1720819;83;21083;-57
2023/04/25 00:27:45;;;;;;;11.33;5.83;;;;;;;9.98;68.07;99776.31;1720721;83;21057;-57
2023/04/25 00:30:15;;;;;;;11.00;6.30;;;;;;;9.85;68.09;99782.09;1720872;83;21043;-58
2023/04/25 00:32:44;;;;;;;10.38;6.00;;;;;;;9.79;68.42;99771.98;1720914;83;21015;-58
2023/04/25 00:35:15;;;;;;;20.45;6.72;;;;;;;9.78;68.63;99773.03;1720784;83;21047;-59
2023/04/25 00:37:45;;;;;;;14.70;6.40;;;;;;;9.76;68.81;99772.39;1720955;83;20995;-58
2023/04/25 00:40:14;;;;;;;11.73;6.60;;;;;;;9.74;69.01;99764.05;1721098;83;21035;-58
2023/04/25 00:42:43;;;;;;;10.05;6.20;;;;;;;9.73;69.22;99765.94;1720681;83;21090;-59
2023/04/25 00:45:17;;;;;;;10.95;5.80;;;;;;;9.71;69.34;99755.73;1720652;83;21459;-59
2023/04/25 00:47:47;;;;;;;11.55;5.78;;;;;;;9.70;69.43;99760.88;1720763;83;21050;-59
2023/04/25 00:50:16;;;;;;;9.48;5.80;;;;;;;9.71;69.33;99764.46;1720531;83;21423;-59
2023/04/25 00:52:46;;;;;;;12.95;6.12;;;;;;;9.68;69.34;99761.62;1720648;83;21122;-59
2023/04/25 00:55:15;;;;;;;11.08;5.45;;;;;;;9.66;69.58;99759.61;1720558;83;21030;-58
2023/04/25 00:57:45;;;;;;;9.68;5.50;;;;;;;9.64;69.76;99756.77;1720700;83;21086;-59
2023/04/25 01:00:15;;;;;;;9.98;5.87;;;;;;;9.60;69.89;99755.50;1720664;83;21043;-59
2023/04/25 01:02:45;;;;;;;11.35;5.47;;;;;;;9.58;70.07;99758.44;1721107;83;21019;-61
2023/04/25 01:05:18;;;;;;;11.88;6.37;;;;;;;9.59;70.21;99757.92;1720621;83;21066;-58
2023/04/25 01:07:48;;;;;;;9.23;5.30;;;;;;;9.56;70.30;99755.59;1720609;83;21074;-58
2023/04/25 01:10:18;;;;;;;10.48;5.25;;;;;;;9.51;70.45;99752.95;1720603;83;21517;-58
2023/04/25 01:12:49;;;;;;;21.87;5.67;;;;;;;9.51;70.70;99758.95;1720940;83;21086;-59
2023/04/25 01:15:20;;;;;;;9.80;5.50;;;;;;;9.52;70.91;99756.01;1720984;83;21043;-58
2023/04/25 01:17:50;;;;;;;9.13;5.28;;;;;;;9.54;70.91;99762.64;1720754;83;21071;-57
2023/04/25 01:20:22;;;;;;;12.93;5.97;;;;;;;9.56;70.93;99761.91;1720613;83;21099;-58
2023/04/25 01:22:52;;;;;;;11.78;5.50;;;;;;;9.57;70.94;99762.75;1720806;83;21481;-59
2023/04/25 01:25:23;;;;;;;9.80;5.50;;;;;;;9.52;70.98;99758.74;1698514;83;21071;-57
2023/04/25 01:27:53;;;;;;;8.30;5.45;;;;;;;9.51;71.10;99753.48;1720704;83;21031;-57
2023/04/25 01:30:24;;;;;;;9.90;5.58;;;;;;;9.52;71.17;99757.37;1720710;83;21035;-58
2023/04/25 01:32:56;;;;;;;9.98;5.60;;;;;;;9.54;71.22;99748.97;1720792;83;21042;-57
2023/04/25 01:35:25;;;;;;;10.65;5.40;;;;;;;9.52;71.30;99751.91;1721113;83;21493;-58
2023/04/25 01:37:59;;;;;;;11.25;5.25;;;;;;;9.51;71.19;99750.22;1720979;83;21079;-57
2023/04/25 01:40:28;;;;;;;9.70;5.40;;;;;;;9.50;71.20;99746.33;1720794;83;21075;-57
2023/04/25 01:42:59;;;;;;;10.70;5.10;;;;;;;9.49;71.21;99744.64;1720656;83;21071;-58
2023/04/25 01:45:29;;;;;;;9.15;5.10;;;;;;;9.48;71.25;99741.59;1698356;83;22049;-58
2023/04/25 01:48:00;;;;;;;10.38;5.60;;;;;;;9.42;71.31;99736.42;1720882;83;21051;-58
2023/04/25 01:50:30;;;;;;;7.80;5.25;;;;;;;9.40;71.49;99734.42;1721103;83;21093;-57
2023/04/25 01:53:01;;;;;;;11.63;6.00;;;;;;;9.41;71.58;99739.36;1720840;83;21090;-59
2023/04/25 01:55:31;;;;;;;10.00;5.28;;;;;;;9.37;71.72;99729.89;1720840;83;21018;-58
2023/04/25 01:58:03;;;;;;;10.00;5.40;;;;;;;9.32;71.96;99737.87;1720193;83;21039;-58
2023/04/25 02:00:52;;;;;;;12.80;5.53;;;;;;;9.27;72.12;99730.81;1720773;83;20999;-58
2023/04/25 02:03:22;;;;;;;9.38;5.08;;;;;;;9.25;72.38;99735.64;1720804;83;21521;-60
2023/04/25 02:05:53;;;;;;;8.63;4.87;;;;;;;9.24;72.50;99738.05;1720836;83;21035;-59
2023/04/25 02:08:25;;;;;;;7.92;5.40;;;;;;;9.19;72.56;99735.41;1721010;83;21066;-57
2023/04/25 02:10:56;;;;;;;10.50;5.33;;;;;;;9.17;72.66;99740.23;1720735;83;21080;-58
2023/04/25 02:13:28;;;;;;;8.15;5.17;;;;;;;9.16;72.81;99742.66;1720409;83;21067;-58
2023/04/25 02:16:00;;;;;;;10.23;5.20;;;;;;;9.16;72.89;99739.08;1720628;83;21000;-59
2023/04/25 02:18:29;;;;;;;11.85;5.12;;;;;;;9.15;72.94;99737.39;1720850;83;21039;-58
2023/04/25 02:21:03;;;;;;;9.70;5.15;;;;;;;9.15;73.01;99734.14;1720712;83;21114;-58
2023/04/25 02:23:32;;;;;;;9.93;5.30;;;;;;;9.16;73.04;99739.92;1720744;83;21052;-58
2023/04/25 02:26:02;;;;;;;11.28;5.20;;;;;;;9.18;73.05;99738.34;1720858;83;21031;-58
2023/04/25 02:28:31;;;;;;;8.48;4.95;;;;;;;9.19;72.98;99739.52;1720618;83;21067;-59
2023/04/25 02:31:00;;;;;;;7.95;4.72;;;;;;;9.17;72.94;99737.50;1720740;83;21102;-60
2023/04/25 02:33:29;;;;;;;11.53;5.55;;;;;;;9.16;73.03;99737.19;1720325;82;21054;-58
2023/04/25 02:35:59;;;;;;;12.00;6.08;;;;;;;9.17;73.06;99729.83;1718834;83;21490;-58
2023/04/25 02:38:29;;;;;;;9.43;5.12;;;;;;;9.19;73.04;99735.41;1718796;83;21546;-58
2023/04/25 02:40:58;;;;;;;9.25;5.22;;;;;;;9.23;72.97;99732.27;1718881;83;21031;-58
2023/04/25 02:43:29;;;;;;;8.90;4.80;;;;;;;9.21;72.88;99733.31;1718721;83;21075;-58
2023/04/25 02:45:59;;;;;;;8.50;4.92;;;;;;;9.19;72.91;99729.95;1718734;83;21070;-58
2023/04/25 02:48:29;;;;;;;8.85;4.95;;;;;;;9.20;73.04;99728.90;1718882;83;21073;-58
2023/04/25 02:51:00;;;;;;;7.90;4.97;;;;;;;9.23;73.05;99727.64;1718858;83;21057;-58
2023/04/25 02:53:31;;;;;;;11.45;5.42;;;;;;;9.20;73.00;99727.53;1718911;83;21027;-58
2023/04/25 02:56:00;;;;;;;8.65;5.10;;;;;;;9.18;73.20;99726.89;1720304;83;21015;-58
2023/04/25 02:58:30;;;;;;;9.78;5.45;;;;;;;9.21;73.27;99731.11;1720802;83;21088;-57
2023/04/25 03:01:01;;;;;;;10.15;5.40;;;;;;;9.24;73.32;99731.22;1721092;83;21082;-58
2023/04/25 03:03:32;;;;;;;11.22;5.25;;;;;;;9.23;73.27;99731.74;1720739;83;21111;-58
2023/04/25 03:06:02;;;;;;;11.20;5.22;;;;;;;9.20;73.39;99730.27;1718980;83;21015;-58
2023/04/25 03:08:34;;;;;;;8.85;5.25;;;;;;;9.17;73.50;99732.04;1718848;83;21058;-58
2023/04/25 03:11:04;;;;;;;13.08;6.37;;;;;;;9.16;73.56;99732.24;1718728;83;21106;-58
2023/04/25 03:13:35;;;;;;;13.53;5.55;;;;;;;9.15;73.67;99738.23;1718976;83;21087;-58
2023/04/25 03:16:06;;;;;;;8.98;5.47;;;;;;;9.16;73.81;99733.09;1718844;83;21098;-57
2023/04/25 03:18:36;;;;;;;8.73;5.15;;;;;;;9.15;73.85;99742.86;1718715;83;21480;-57
2023/04/25 03:21:05;;;;;;;10.65;5.80;;;;;;;9.15;73.92;99740.97;1718788;83;21011;-58
2023/04/25 03:23:35;;;;;;;10.90;5.83;;;;;;;9.12;73.92;99731.81;1718954;83;21500;-58
2023/04/25 03:26:04;;;;;;;9.75;5.70;;;;;;;9.12;74.01;99733.18;1718686;83;21047;-58
2023/04/25 03:28:34;;;;;;;14.68;6.30;;;;;;;9.11;74.07;99730.66;1718741;83;20999;-60
2023/04/25 03:31:04;;;;;;;13.10;6.47;;;;;;;9.14;74.22;99730.24;1718802;83;21114;-58
2023/04/25 03:33:33;;;;;;;9.83;5.90;;;;;;;9.17;74.21;99736.14;1713921;83;21043;-59
2023/04/25 03:36:03;;;;;;;11.20;6.58;;;;;;;9.20;74.21;99733.00;1679453;85;21504;-57
2023/04/25 03:38:32;;;;;;;11.83;6.70;;;;;;;9.21;74.19;99727.85;1653507;86;21080;-58
2023/04/25 03:41:02;;;;;;;11.63;6.58;;;;;;;9.23;74.21;99724.91;1653270;86;21042;-58
2023/04/25 03:43:46;;;;;;;16.55;6.42;;;;;;;9.20;74.23;99728.90;1653130;86;21513;-58
2023/04/25 03:46:15;;;;;;;10.88;6.75;;;;;;;9.21;74.32;99731.95;1653251;85;21087;-60
2023/04/25 03:48:45;;;;;;;17.35;7.37;;;;;;;9.19;74.39;99731.31;1651205;86;21038;-58
2023/04/25 03:51:16;;;;;;;13.98;6.58;;;;;;;9.23;74.65;99730.38;1624902;88;21080;-60
2023/04/25 03:53:46;;;;;;;26.93;8.43;;;;;;;9.25;74.57;99729.65;1685517;84;21064;-58
2023/04/25 03:56:21;;;;;;;15.83;7.58;;;;;;;9.26;74.61;99731.33;1690437;84;21040;-58
2023/04/25 03:58:52;;;;;;;16.35;7.15;;;;;;;9.28;74.67;99718.83;1681931;84;21313;-58
2023/04/25 04:01:22;;;;;;;20.12;8.43;;;;;;;9.35;74.84;99726.00;1692760;84;21102;-61
2023/04/25 04:03:51;;;;;;;16.23;7.80;;;;;;;9.42;74.81;99729.59;1684931;84;21043;-58
2023/04/25 04:06:21;;;;;;;16.60;8.35;;;;;;;9.48;74.76;99732.02;1682118;84;21337;-59
2023/04/25 04:08:52;;;;;;;19.98;9.23;;;;;;;9.55;74.77;99726.03;1652864;85;21452;-59
2023/04/25 04:11:21;;;;;;;18.00;9.13;;;;;;;9.63;74.67;99725.00;1653021;87;21043;-57
2023/04/25 04:13:51;;;;;;;16.02;9.88;;;;;;;9.69;74.59;99725.01;1653137;87;21226;-59
2023/04/25 04:16:21;;;;;;;19.85;10.13;;;;;;;9.78;74.38;99725.16;1653168;86;21475;-58
2023/04/25 04:18:51;;;;;;;17.37;9.28;;;;;;;9.87;74.13;99725.79;1653041;85;21530;-60
2023/04/25 04:21:21;;;;;;;17.60;9.30;;;;;;;9.97;73.81;99719.37;1651264;86;21061;-59
2023/04/25 04:23:51;;;;;;;18.23;9.78;;;;;;;10.07;73.59;99720.31;1653435;87;21126;-58
2023/04/25 04:26:26;;;;;;;14.90;8.83;;;;;;;10.18;73.27;99721.05;1683492;84;21095;-59
2023/04/25 04:28:59;;;;;;;16.55;7.92;;;;;;;10.27;72.83;99730.76;1682582;84;21065;-59
2023/04/25 04:31:39;;;;;;;12.15;6.20;;;;;;;10.35;72.50;99716.84;1689576;84;21044;-58
2023/04/25 04:34:09;;;;;;;12.45;6.45;;;;;;;10.46;72.03;99713.48;1696617;83;21059;-59
2023/04/25 04:36:39;;;;;;;17.37;6.60;;;;;;;10.55;71.40;99709.99;1720760;83;21003;-58
2023/04/25 04:39:10;;;;;;;12.95;6.15;;;;;;;10.63;70.95;99705.65;1720777;83;21521;-58
2023/04/25 04:41:42;;;;;;;13.28;6.87;;;;;;;10.72;70.62;99711.73;1719321;82;21075;-59
2023/04/25 04:44:17;;;;;;;13.43;6.45;;;;;;;10.82;70.26;99712.12;1717262;83;21059;-59
2023/04/25 04:47:01;;;;;;;11.30;5.67;;;;;;;10.92;69.96;99708.39;1624874;83;21067;-58
2023/04/25 04:49:51;;;;;;;16.07;5.60;;;;;;;11.01;69.54;99708.45;1720868;83;21075;-58
2023/04/25 04:52:35;;;;;;;10.58;5.25;;;;;;;11.14;69.02;99708.12;1719765;83;21071;-58
2023/04/25 04:55:08;;;;;;;10.88;5.72;;;;;;;11.24;68.40;99708.48;1717699;83;21051;-58
2023/04/25 04:57:39;;;;;;;10.38;5.80;;;;;;;11.31;67.92;99699.16;1718820;81;21003;-58
2023/04/25 05:00:18;;;;;;;10.15;5.40;;;;;;;11.40;67.49;99701.12;1718848;83;21039;-58
2023/04/25 05:02:53;;;;;;;8.95;5.08;;;;;;;11.48;66.96;99698.11;1707319;83;21056;-58
2023/04/25 05:05:31;;;;;;;9.78;5.45;;;;;;;11.56;66.70;99701.13;1648675;83;21114;-58
2023/04/25 05:08:03;;;;;;;9.70;5.12;;;;;;;11.62;66.23;99702.45;1630591;83;21050;-58
2023/04/25 05:41:12;;;;;;;13.00;5.70;;;;;;;13.25;60.32;99684.32;1851032;77;28033;-58
2023/04/25 05:43:46;;;;;;;9.78;6.08;;;;;;;13.16;59.99;99687.91;1789456;80;21510;-57
2023/04/25 05:46:43;;;;;;;8.50;5.60;;;;;;;13.15;60.11;99685.38;1829820;77;22126;-58
2023/04/25 05:49:18;;;;;;;10.43;5.05;;;;;;;13.09;60.01;99687.69;1718297;83;21122;-58
2023/04/25 05:52:02;;;;;;;7.87;4.72;;;;;;;13.07;60.07;99687.08;1739697;82;21155;-59
2023/04/25 05:54:34;;;;;;;9.48;4.90;;;;;;;13.07;59.83;99682.95;1722291;83;21146;-59
2023/04/25 05:57:04;;;;;;;8.38;4.92;;;;;;;13.07;59.58;99677.45;1739952;82;21151;-58
2023/04/25 05:59:35;;;;;;;8.00;4.35;;;;;;;13.05;59.54;99677.69;1724049;83;21113;-58
2023/04/25 06:02:06;;;;;;;6.33;4.35;;;;;;;13.05;59.07;99679.06;1739922;82;21199;-59
2023/04/25 06:04:37;;;;;;;10.40;5.00;;;;;;;13.04;58.60;99680.13;1724124;83;21153;-62
2023/04/25 06:07:07;;;;;;;9.90;4.28;;;;;;;13.05;58.32;99674.94;1739929;82;21575;-59
2023/04/25 06:09:38;;;;;;;7.03;4.15;;;;;;;13.08;58.17;99673.63;1724248;83;21541;-58
2023/04/25 06:12:09;;;;;;;15.58;5.33;;;;;;;13.10;57.76;99672.33;1740017;82;21162;-59
2023/04/25 06:14:41;;;;;;;11.83;5.85;;;;;;;13.15;57.86;99670.25;1695870;83;21110;-60
2023/04/25 06:17:11;;;;;;;12.55;5.47;;;;;;;13.19;57.94;99662.72;1739944;82;21167;-60
2023/04/25 06:19:40;;;;;;;12.73;5.08;;;;;;;13.25;58.00;99661.78;1724225;83;21092;-59
2023/04/25 06:22:10;;;;;;;11.80;4.67;;;;;;;13.30;57.67;99663.83;1740026;82;21159;-59
2023/04/25 06:24:42;;;;;;;13.95;4.95;;;;;;;13.36;57.31;99662.05;1724145;83;21118;-60
2023/04/25 06:27:11;;;;;;;10.93;5.03;;;;;;;13.40;56.51;99657.77;1739994;82;21151;-58
2023/04/25 06:29:43;;;;;;;10.48;5.05;;;;;;;13.47;55.57;99659.88;1724250;83;21165;-59
2023/04/25 06:32:12;;;;;;;11.80;5.78;;;;;;;13.66;55.57;99657.39;1739988;82;21242;-58
2023/04/25 06:34:42;;;;;;;10.13;5.37;;;;;;;13.99;55.46;99659.59;1724187;83;21121;-59
2023/04/25 06:37:13;;;;;;;18.60;6.33;;;;;;;14.42;55.00;99653.78;1739916;82;21147;-58
2023/04/25 06:39:43;;;;;;;15.80;6.30;;;;;;;14.95;54.67;99650.50;1724076;83;21189;-58
2023/04/25 06:42:12;;;;;;;20.15;6.80;;;;;;;15.50;53.14;99644.70;1739936;82;21198;-59
2023/04/25 06:44:43;;;;;;;23.77;6.85;;;;;;;15.97;51.73;99650.00;1722884;83;21158;-58
2023/04/25 07:00:53;;;;;;;28.87;7.93;;;;;;;19.32;43.04;99631.80;1778357;79;28111;-64
2023/04/25 07:03:25;;;;;;;18.27;7.15;;;;;;;19.46;42.17;99628.77;1752906;82;21347;-65
2023/04/25 07:05:58;;;;;;;18.87;8.60;;;;;;;19.69;41.61;99627.48;1752527;81;21201;-64
2023/04/25 07:08:29;;;;;;;11.80;6.35;;;;;;;19.90;41.14;99633.33;1752903;82;21177;-66
2023/04/25 07:11:00;;;;;;;13.88;6.22;;;;;;;20.11;40.28;99634.16;1724609;82;21584;-65
2023/04/25 07:13:30;;;;;;;15.83;5.72;;;;;;;20.31;40.10;99637.50;1752976;82;21118;-63
2023/04/25 07:16:00;;;;;;;15.95;5.37;;;;;;;20.56;38.87;99635.26;1752763;82;21184;-65
2023/04/25 07:18:31;;;;;;;16.50;4.70;;;;;;;20.65;38.33;99636.34;1752657;82;21110;-65
2023/04/25 07:21:01;;;;;;;10.30;5.15;;;;;;;20.71;37.39;99638.00;1752702;80;21896;-65
2023/04/25 07:23:31;;;;;;;13.22;4.60;;;;;;;20.79;37.00;99634.63;1720840;82;21154;-68
2023/04/25 07:26:02;;;;;;;9.15;4.55;;;;;;;20.89;36.38;99640.75;1750890;82;21123;-67
2023/04/25 07:28:33;;;;;;;12.30;4.60;;;;;;;21.15;36.66;99632.56;1750894;81;21210;-66
2023/04/25 07:31:02;;;;;;;12.00;5.65;;;;;;;21.39;35.51;99637.48;1737918;82;21131;-64
2023/04/25 07:33:34;;;;;;;8.93;4.78;;;;;;;21.46;35.41;99638.86;1737785;81;21420;-64
2023/04/25 07:36:04;;;;;;;10.10;4.35;;;;;;;21.50;35.32;99635.77;1751120;82;21091;-64
2023/04/25 07:38:33;;;;;;;12.33;5.97;;;;;;;21.51;34.72;99631.03;1743658;82;21215;-64
2023/04/25 07:41:03;;;;;;;9.95;4.60;;;;;;;21.57;34.99;99631.83;1748755;82;21102;-64
2023/04/25 07:43:33;;;;;;;12.58;4.33;;;;;;;21.68;35.46;99630.07;1750806;82;21103;-65
2023/04/25 07:46:03;;;;;;;162.40;11.93;;;;;;;21.95;34.78;99628.75;1750652;81;21225;-63
2023/04/25 07:48:34;;;;;;;17.73;5.55;;;;;;;22.09;33.74;99621.41;1735482;83;21195;-64
2023/04/25 07:51:05;;;;;;;9.53;3.92;;;;;;;22.10;33.74;99630.05;1742292;82;21155;-65
2023/04/25 07:53:37;;;;;;;14.10;5.25;;;;;;;22.11;33.08;99624.77;1751094;81;21163;-65
2023/04/25 07:56:09;;;;;;;10.80;4.97;;;;;;;22.09;32.64;99621.41;1750885;81;21150;-65
2023/04/25 07:58:40;;;;;;;7.75;4.60;;;;;;;22.02;33.16;99617.53;1750663;81;21244;-66
2023/04/25 08:01:12;;;;;;;7.20;3.95;;;;;;;22.01;33.31;99624.80;1754046;81;21229;-64
2023/04/25 08:03:42;;;;;;;9.20;4.20;;;;;;;22.08;33.32;99619.74;1753712;82;21154;-64
2023/04/25 08:06:16;;;;;;;11.45;4.15;;;;;;;22.16;34.04;99614.13;1706656;82;21174;-66
2023/04/25 08:08:56;;;;;;;5.12;3.40;;;;;;;22.42;33.57;99609.95;1752970;82;21170;-67
2023/04/25 08:11:27;;;;;;;6.58;3.90;;;;;;;22.62;32.91;99611.69;1753599;82;21154;-63
2023/04/25 08:13:58;;;;;;;8.45;4.20;;;;;;;22.75;32.08;99617.39;1753760;81;21134;-64
2023/04/25 08:16:30;;;;;;;6.15;3.50;;;;;;;22.85;31.77;99609.52;1753848;82;21589;-67
2023/04/25 08:19:00;;;;;;;5.90;3.42;;;;;;;22.94;32.25;99615.28;1753859;82;21198;-65
2023/04/25 08:21:31;;;;;;;7.10;3.72;;;;;;;23.02;30.52;99601.48;1705265;82;21210;-66
2023/04/25 08:24:02;;;;;;;8.60;3.67;;;;;;;22.99;31.30;99603.48;1753981;81;21118;-65
2023/04/25 08:26:37;;;;;;;8.58;4.37;;;;;;;23.02;30.93;99601.48;1753938;81;21599;-65
2023/04/25 08:29:06;;;;;;;8.38;3.90;;;;;;;23.05;30.90;99600.88;1753806;81;21150;-64
2023/04/25 08:31:37;;;;;;;11.45;3.58;;;;;;;23.10;30.81;99594.39;1753800;82;21147;-66
2023/04/25 08:34:07;;;;;;;7.15;3.40;;;;;;;23.19;30.96;99587.56;1753922;82;21261;-67
2023/04/25 08:36:39;;;;;;;8.25;3.47;;;;;;;23.31;30.43;99592.14;1753652;82;21421;-64
2023/04/25 08:39:20;;;;;;;6.58;3.65;;;;;;;23.33;30.22;99596.86;1743452;82;21155;-64
2023/04/25 08:41:52;;;;;;;9.13;3.92;;;;;;;23.21;30.60;99581.11;1741192;82;21120;-64
2023/04/25 08:44:22;;;;;;;6.80;3.75;;;;;;;23.31;30.10;99577.59;1742789;81;21585;-66
2023/04/25 08:46:53;;;;;;;10.60;3.55;;;;;;;23.27;30.51;99577.11;1743006;82;21123;-67
2023/04/25 08:49:33;;;;;;;7.42;3.85;;;;;;;23.36;30.20;99578.92;1848273;77;22171;-65
2023/04/25 08:52:06;;;;;;;8.23;4.00;;;;;;;23.29;30.43;99579.03;1754060;82;21094;-65
2023/04/25 08:54:35;;;;;;;4.90;3.30;;;;;;;23.25;30.80;99575.18;1754139;80;21115;-65
2023/04/25 08:57:09;;;;;;;10.40;3.85;;;;;;;23.09;30.34;99578.19;1753894;81;21122;-64
2023/04/25 08:59:40;;;;;;;7.45;4.08;;;;;;;22.93;30.81;99573.94;1754091;82;21193;-66
2023/04/25 09:02:11;;;;;;;8.18;3.75;;;;;;;22.90;30.77;99570.34;1754025;82;21130;-66
2023/04/25 09:04:43;;;;;;;7.97;3.80;;;;;;;22.86;31.03;99572.08;1753763;82;21107;-66
2023/04/25 09:07:15;;;;;;;8.50;3.72;;;;;;;22.71;30.87;99563.83;1724985;82;21152;-64
2023/04/25 09:09:45;;;;;;;7.80;3.55;;;;;;;22.55;31.69;99563.75;1724680;82;21130;-66
2023/04/25 09:12:18;;;;;;;9.65;3.70;;;;;;;22.42;31.81;99570.31;1754261;82;21571;-64
2023/04/25 09:15:09;;;;;;;7.83;3.70;;;;;;;22.37;31.50;99566.17;1751501;81;21412;-66
2023/04/25 09:17:57;;;;;;;4.35;3.05;;;;;;;22.30;31.45;99566.27;1749753;82;21139;-64
2023/04/25 09:20:29;;;;;;;6.72;3.50;;;;;;;22.04;31.20;99567.05;1771766;81;21111;-66
2023/04/25 09:23:05;;;;;;;4.50;3.15;;;;;;;21.81;31.96;99557.47;1725349;82;21566;-65
2023/04/25 09:25:38;;;;;;;5.20;2.85;;;;;;;21.66;32.02;99555.64;1754320;81;21162;-64
2023/04/25 09:28:09;;;;;;;3.95;2.60;;;;;;;21.55;31.46;99559.64;1753760;82;21150;-64
2023/04/25 09:30:39;;;;;;;6.33;3.33;;;;;;;21.37;31.80;99551.37;1753851;82;21127;-66
2023/04/25 09:33:11;;;;;;;3.77;2.87;;;;;;;21.21;31.99;99552.01;1753063;82;21126;-65
2023/04/25 09:35:44;;;;;;;5.28;3.27;;;;;;;21.12;32.44;99550.95;1724031;82;21725;-65
2023/04/25 09:38:21;;;;;;;7.40;3.60;;;;;;;21.10;32.04;99549.02;1728221;82;21560;-65
2023/04/25 09:40:51;;;;;;;6.72;3.10;;;;;;;20.96;32.21;99545.20;1732919;82;21181;-65
2023/04/25 09:43:24;;;;;;;5.97;3.33;;;;;;;20.87;32.76;99535.22;1703622;83;21197;-65
2023/04/25 09:45:57;;;;;;;8.15;3.40;;;;;;;20.79;32.79;99542.75;1684009;84;21166;-64
2023/04/25 09:48:28;;;;;;;7.12;2.90;;;;;;;20.69;33.21;99537.79;1726137;82;21279;-65
2023/04/25 09:51:14;;;;;;;6.35;3.10;;;;;;;20.64;32.92;99532.24;1763788;81;21173;-66
2023/04/25 09:53:50;;;;;;;3.90;2.75;;;;;;;20.58;33.10;99535.05;1763671;81;21167;-66
2023/04/25 09:56:20;;;;;;;5.17;2.77;;;;;;;20.53;32.99;99522.55;1687961;84;21137;-66
2023/04/25 09:58:51;;;;;;;9.05;2.92;;;;;;;20.50;33.04;99520.34;1742369;81;21137;-65
2023/04/25 10:01:20;;;;;;;15.45;3.72;;;;;;;20.55;33.05;99520.87;1763298;81;21601;-64
2023/04/25 10:03:52;;;;;;;10.28;3.30;;;;;;;20.61;32.48;99520.29;1740758;81;21605;-63
2023/04/25 10:06:43;;;;;;;6.05;2.92;;;;;;;20.64;32.36;99520.55;1687955;84;21281;-65
2023/04/25 10:09:18;;;;;;;4.67;2.33;;;;;;;20.68;32.36;99524.43;1708002;81;21167;-66
2023/04/25 10:11:50;;;;;;;5.55;3.12;;;;;;;20.66;31.95;99520.27;1763104;80;21124;-66
2023/04/25 10:14:20;;;;;;;6.03;3.00;;;;;;;20.63;31.53;99513.32;1763253;81;21613;-62
2023/04/25 10:16:53;;;;;;;4.75;2.85;;;;;;;20.59;31.90;99506.66;1747248;79;21107;-66
2023/04/25 10:19:22;;;;;;;8.15;2.80;;;;;;;20.45;32.14;99505.05;1737605;82;21095;-65
2023/04/25 10:22:11;;;;;;;10.55;3.42;;;;;;;20.32;32.54;99511.75;1762945;80;21110;-64
2023/04/25 10:24:42;;;;;;;6.87;3.05;;;;;;;20.21;32.60;99508.17;1753640;81;21542;-65
2023/04/25 10:27:11;;;;;;;7.28;2.83;;;;;;;20.16;32.98;99504.02;1805384;79;21245;-63
2023/04/25 10:29:41;;;;;;;7.60;3.10;;;;;;;20.15;33.20;99496.75;1727742;82;21570;-64
2023/04/25 10:32:10;;;;;;;8.65;2.58;;;;;;;20.17;33.04;99498.72;1727874;81;21544;-64
2023/04/25 10:34:46;;;;;;;4.95;2.67;;;;;;;20.15;32.67;99492.02;1774553;81;21533;-66
2023/04/25 10:37:15;;;;;;;8.60;4.42;;;;;;;20.14;32.84;99483.41;1755349;79;21190;-65
2023/04/25 10:39:46;;;;;;;5.65;2.67;;;;;;;20.15;32.82;99495.36;1822510;79;21145;-65
2023/04/25 10:42:17;;;;;;;4.22;2.62;;;;;;;20.14;32.46;99490.35;1822524;79;21172;-65
2023/04/25 10:45:04;;;;;;;7.20;2.60;;;;;;;20.08;32.46;99490.65;1755113;82;21138;-65
2023/04/25 10:47:36;;;;;;;6.08;3.35;;;;;;;19.98;32.69;99497.63;1755383;82;21174;-65
2023/04/25 10:50:08;;;;;;;4.12;2.40;;;;;;;19.86;32.61;99494.59;1755116;81;21127;-64
2023/04/25 10:52:39;;;;;;;4.80;2.55;;;;;;;19.76;32.93;99491.83;1755370;82;21573;-66
2023/04/25 10:55:09;;;;;;;5.37;2.77;;;;;;;19.70;32.85;99487.95;1725112;82;21134;-64
2023/04/25 10:57:46;;;;;;;5.87;3.02;;;;;;;19.64;32.92;99489.91;1822149;79;21079;-62
2023/04/25 11:00:21;;;;;;;6.95;2.92;;;;;;;19.58;33.00;99489.08;1822273;79;21115;-64
2023/04/25 11:02:53;;;;;;;8.90;3.35;;;;;;;19.54;33.28;99482.97;1821884;79;21185;-66
2023/04/25 11:05:32;;;;;;;6.90;3.20;;;;;;;19.53;33.38;99478.52;1822171;79;21153;-66
2023/04/25 11:08:04;;;;;;;5.97;3.02;;;;;;;19.57;33.38;99483.80;1821140;79;21118;-63
2023/04/25 11:10:36;;;;;;;10.58;3.08;;;;;;;19.57;33.27;99474.91;1790031;79;21138;-62
2023/04/25 11:13:06;;;;;;;4.20;2.58;;;;;;;19.58;33.51;99471.57;1822421;79;21776;-64
2023/04/25 11:15:36;;;;;;;6.65;4.00;;;;;;;19.59;33.36;99472.68;1822584;79;21142;-64
2023/04/25 11:18:06;;;;;;;11.40;3.40;;;;;;;19.57;33.55;99472.12;1763637;79;21189;-64
2023/04/25 11:20:36;;;;;;;9.40;3.27;;;;;;;19.56;33.55;99476.58;1822217;79;21181;-66
2023/04/25 11:23:08;;;;;;;6.42;2.60;;;;;;;19.55;33.59;99471.58;1723677;82;21170;-63
2023/04/25 11:25:37;;;;;;;6.25;2.90;;;;;;;19.55;33.41;99472.12;1822162;79;21177;-64
2023/04/25 11:28:07;;;;;;;7.55;2.80;;;;;;;19.54;33.54;99455.18;1789367;79;21550;-66
2023/04/25 11:30:36;;;;;;;6.92;2.70;;;;;;;19.54;33.42;99457.41;1726793;82;21165;-64
2023/04/25 11:33:05;;;;;;;5.58;2.52;;;;;;;19.50;33.26;99453.45;1782450;80;21169;-64
2023/04/25 11:35:34;;;;;;;5.12;2.50;;;;;;;19.47;33.28;99451.79;1782428;80;21638;-63
2023/04/25 11:38:03;;;;;;;8.63;3.05;;;;;;;19.43;33.23;99450.69;1782553;80;21193;-64
2023/04/25 11:40:36;;;;;;;3.83;2.67;;;;;;;19.40;33.30;99447.08;1752681;80;21137;-63
2023/04/25 11:43:06;;;;;;;7.42;2.20;;;;;;;19.39;33.56;99445.41;1751448;80;21129;-63
2023/04/25 11:45:35;;;;;;;4.35;2.33;;;;;;;19.39;33.31;99439.85;1781935;79;21149;-63
2023/04/25 11:48:30;;;;;;;8.03;3.08;;;;;;;19.38;33.40;99443.73;1752649;80;21137;-62
2023/04/25 11:51:05;;;;;;;4.70;2.62;;;;;;;19.36;33.14;99439.86;1782484;79;21600;-63
2023/04/25 11:53:34;;;;;;;8.85;2.80;;;;;;;19.28;33.67;99431.52;1782644;80;21581;-62
2023/04/25 11:56:12;;;;;;;7.15;2.52;;;;;;;19.23;33.95;99430.14;1782607;80;21118;-64
2023/04/25 11:59:03;;;;;;;6.72;2.42;;;;;;;19.23;34.06;99428.75;1783019;80;21525;-63
2023/04/25 12:01:38;;;;;;;7.65;2.62;;;;;;;19.25;33.97;99429.86;1782674;80;21154;-63
2023/04/25 12:04:24;;;;;;;7.58;2.85;;;;;;;19.25;33.39;99422.36;1782501;80;21549;-64
2023/04/25 12:06:55;;;;;;;6.33;2.72;;;;;;;19.27;33.55;99424.86;1782645;80;21193;-65
2023/04/25 12:09:35;;;;;;;6.90;2.60;;;;;;;19.28;33.58;99424.58;1782935;80;21141;-63
2023/04/25 12:12:14;;;;;;;9.00;3.05;;;;;;;19.27;33.66;99418.75;1782583;79;21101;-66
2023/04/25 12:14:51;;;;;;;6.80;2.52;;;;;;;19.27;33.38;99417.92;1781865;80;21130;-65
2023/04/25 12:17:18;;;;;;;8.08;3.08;;;;;;;19.23;33.51;99417.64;1752786;80;21134;-64
2023/04/25 12:19:48;;;;;;;11.22;2.85;;;;;;;19.20;33.72;99411.25;1782197;80;21106;-65
2023/04/25 12:22:23;;;;;;;6.12;2.70;;;;;;;19.20;33.98;99410.42;1782335;80;21126;-66
2023/04/25 12:24:53;;;;;;;4.67;2.70;;;;;;;19.22;34.18;99410.42;1752450;80;21090;-65
2023/04/25 12:27:22;;;;;;;6.47;3.00;;;;;;;19.23;33.68;99408.48;1782245;80;21197;-64
2023/04/25 12:29:55;;;;;;;5.58;2.50;;;;;;;19.13;33.42;99406.54;1767655;79;21537;-63
2023/04/25 12:32:26;;;;;;;3.33;2.45;;;;;;;19.08;33.85;99400.98;1755057;82;21130;-67
2023/04/25 12:34:55;;;;;;;8.28;3.10;;;;;;;19.04;34.08;99401.27;1755064;82;21158;-63
2023/04/25 12:37:27;;;;;;;7.75;3.20;;;;;;;19.00;34.14;99392.66;1821730;79;21074;-64